createdAt,value
2019-02-19T00:01:51.634Z,56.61
2019-02-19T00:04:21.816Z,56.60
2019-02-19T00:06:51.977Z,56.58
2019-02-19T00:09:22.094Z,56.46
2019-02-19T00:11:52.240Z,56.59
2019-02-19T00:14:22.440Z,56.42
2019-02-19T00:16:52.648Z,56.45
2019-02-19T00:19:22.835Z,56.23
2019-02-19T00:21:53.018Z,56.31
2019-02-19T00:24:23.180Z,56.20
2019-02-19T00:26:53.386Z,56.18
2019-02-19T00:29:23.786Z,56.15
2019-02-19T00:31:54.369Z,56.10
2019-02-19T00:34:24.965Z,56.04
2019-02-19T00:36:55.091Z,55.87
2019-02-19T00:39:25.350Z,55.79
2019-02-19T00:41:55.560Z,55.67
2019-02-19T00:44:25.757Z,55.51
2019-02-19T00:46:56.195Z,55.42
2019-02-19T00:49:28.981Z,55.36
2019-02-19T00:51:59.250Z,55.19
2019-02-19T00:54:29.426Z,55.27
2019-02-19T00:56:59.577Z,55.04
2019-02-19T00:59:29.738Z,55.02
2019-02-19T01:01:59.909Z,55.42
2019-02-19T01:04:30.040Z,54.90
2019-02-19T01:07:00.162Z,54.87
2019-02-19T01:09:30.455Z,54.78
2019-02-19T01:12:01.629Z,54.74
2019-02-19T01:14:32.874Z,54.62
2019-02-19T01:17:03.025Z,54.57
2019-02-19T01:19:33.209Z,54.62
2019-02-19T01:22:03.415Z,54.53
2019-02-19T01:24:33.607Z,54.53
2019-02-19T01:27:03.806Z,54.53
2019-02-19T01:29:33.973Z,54.49
2019-02-19T01:32:04.148Z,54.52
2019-02-19T01:34:34.318Z,54.46
2019-02-19T01:37:04.564Z,54.43
2019-02-19T01:39:34.779Z,54.39
2019-02-19T01:42:04.982Z,54.26
2019-02-19T01:44:35.118Z,54.37
2019-02-19T01:47:05.327Z,54.34
2019-02-19T01:49:35.487Z,54.43
2019-02-19T01:52:05.652Z,54.44
2019-02-19T01:54:35.872Z,54.51
2019-02-19T01:57:06.054Z,54.56
2019-02-19T01:59:36.213Z,54.62
2019-02-19T02:02:06.363Z,54.58
2019-02-19T02:04:36.510Z,54.67
2019-02-19T02:07:06.707Z,54.83
2019-02-19T02:09:36.950Z,54.82
2019-02-19T02:12:07.108Z,54.94
2019-02-19T02:14:38.183Z,54.93
2019-02-19T02:17:08.308Z,55.07
2019-02-19T02:19:38.423Z,55.17
2019-02-19T02:22:08.550Z,55.41
2019-02-19T02:24:38.848Z,55.45
2019-02-19T02:27:09.001Z,55.53
2019-02-19T02:29:39.169Z,55.73
2019-02-19T02:32:09.356Z,55.76
2019-02-19T02:34:39.563Z,55.83
2019-02-19T02:37:09.784Z,55.66
2019-02-19T02:39:43.280Z,55.85
2019-02-19T02:42:13.498Z,56.03
2019-02-19T02:44:43.678Z,55.99
2019-02-19T02:47:13.834Z,55.99
2019-02-19T02:49:44.004Z,56.05
2019-02-19T02:52:14.174Z,56.29
2019-02-19T02:54:44.394Z,56.22
2019-02-19T02:57:14.594Z,56.54
2019-02-19T02:59:44.718Z,56.48
2019-02-19T03:02:17.849Z,56.53
2019-02-19T03:04:46.822Z,56.58
2019-02-19T03:07:28.006Z,56.80
2019-02-19T03:09:58.178Z,56.95
2019-02-19T03:12:28.619Z,56.87
2019-02-19T03:14:58.775Z,56.95
2019-02-19T03:17:28.874Z,56.79
2019-02-19T03:19:59.129Z,57.16
2019-02-19T03:22:29.330Z,56.95
2019-02-19T03:24:59.572Z,56.79
2019-02-19T03:27:30.470Z,56.82
2019-02-19T03:30:00.609Z,56.71
2019-02-19T03:32:30.749Z,56.74
2019-02-19T03:35:01.162Z,56.92
2019-02-19T03:37:31.260Z,57.00
2019-02-19T03:40:01.419Z,56.66
2019-02-19T03:42:32.580Z,56.67
2019-02-19T03:45:02.862Z,56.79
2019-02-19T03:47:33.089Z,56.83
2019-02-19T03:50:03.288Z,56.84
2019-02-19T03:52:33.458Z,57.02
2019-02-19T03:55:11.669Z,56.90
2019-02-19T03:57:44.263Z,56.74
2019-02-19T04:00:14.525Z,56.60
2019-02-19T04:02:44.777Z,56.71
2019-02-19T04:05:16.328Z,56.64
2019-02-19T04:07:46.498Z,56.84
2019-02-19T04:10:17.362Z,56.76
2019-02-19T04:12:47.514Z,57.31
2019-02-19T04:15:17.775Z,57.96
2019-02-19T04:17:48.062Z,57.96
2019-02-19T04:20:19.427Z,58.29
2019-02-19T04:22:51.371Z,58.21
2019-02-19T04:25:24.809Z,58.15
2019-02-19T04:27:57.981Z,58.36
2019-02-19T04:30:28.141Z,58.58
2019-02-19T04:33:01.476Z,59.13
2019-02-19T04:35:31.615Z,59.13
2019-02-19T04:38:01.880Z,59.53
2019-02-19T04:40:32.061Z,59.84
2019-02-19T04:43:02.891Z,59.57
2019-02-19T04:45:34.589Z,59.59
2019-02-19T04:48:10.053Z,59.26
2019-02-19T04:50:45.763Z,59.47
2019-02-19T04:53:19.197Z,59.64
2019-02-19T04:55:53.986Z,59.77
2019-02-19T04:58:26.564Z,59.86
2019-02-19T05:00:57.224Z,60.41
2019-02-19T05:03:27.421Z,60.82
2019-02-19T05:05:57.560Z,61.33
2019-02-19T05:08:27.772Z,61.49
2019-02-19T05:11:01.850Z,61.77
2019-02-19T05:13:38.781Z,62.45
2019-02-19T05:16:08.970Z,62.27
2019-02-19T05:18:39.119Z,62.54
2019-02-19T05:21:10.131Z,62.63
2019-02-19T05:23:45.193Z,62.78
2019-02-19T05:26:19.738Z,62.64
2019-02-19T05:28:54.758Z,62.39
2019-02-19T05:31:27.441Z,62.46
2019-02-19T05:33:58.077Z,62.31
2019-02-19T05:36:28.258Z,63.14
2019-02-19T05:39:00.741Z,62.91
2019-02-19T05:41:34.581Z,63.12
2019-02-19T05:44:06.419Z,63.12
2019-02-19T05:46:36.640Z,63.23
2019-02-19T05:49:06.797Z,63.54
2019-02-19T05:51:37.188Z,63.44
2019-02-19T05:54:07.343Z,63.68
2019-02-19T05:56:37.766Z,64.34
2019-02-19T05:59:09.237Z,64.80
2019-02-19T06:01:39.543Z,65.00
2019-02-19T06:04:13.497Z,65.20
2019-02-19T06:06:45.305Z,66.09
2019-02-19T06:09:15.504Z,66.51
2019-02-19T06:11:47.125Z,66.30
2019-02-19T06:14:21.495Z,65.87
2019-02-19T06:16:58.288Z,65.72
2019-02-19T06:19:24.509Z,65.56
2019-02-19T06:21:59.048Z,65.73
2019-02-19T06:24:29.201Z,66.25
2019-02-19T06:26:59.446Z,66.39
2019-02-19T06:29:30.946Z,66.12
2019-02-19T06:32:02.768Z,66.28
2019-02-19T06:34:33.442Z,66.92
2019-02-19T06:37:03.728Z,66.93
2019-02-19T06:39:33.848Z,66.54
2019-02-19T06:42:04.001Z,66.72
2019-02-19T06:44:34.120Z,66.76
2019-02-19T06:47:06.948Z,66.63
2019-02-19T06:49:36.594Z,66.75
2019-02-19T06:52:06.831Z,66.50
2019-02-19T06:54:37.166Z,66.24
2019-02-19T06:57:10.169Z,66.22
2019-02-19T06:59:40.412Z,66.14
2019-02-19T07:02:19.106Z,66.20
2019-02-19T07:04:52.948Z,66.58
2019-02-19T07:07:23.135Z,66.28
2019-02-19T07:09:53.370Z,66.35
2019-02-19T07:12:23.544Z,66.05
2019-02-19T07:14:53.728Z,66.13
2019-02-19T07:17:23.840Z,65.99
2019-02-19T07:19:54.006Z,65.68
2019-02-19T07:22:24.118Z,65.98
2019-02-19T07:24:54.553Z,65.29
2019-02-19T07:27:24.698Z,65.31
2019-02-19T07:29:54.921Z,64.67
2019-02-19T07:32:25.061Z,64.77
2019-02-19T07:34:55.316Z,64.99
2019-02-19T07:37:25.453Z,64.98
2019-02-19T07:39:55.622Z,65.07
2019-02-19T07:42:25.752Z,64.67
2019-02-19T07:44:58.124Z,64.72
2019-02-19T07:47:28.305Z,64.62
2019-02-19T07:49:58.693Z,64.70
2019-02-19T07:52:28.827Z,64.59
2019-02-19T07:54:59.429Z,64.40
2019-02-19T07:57:29.585Z,64.62
2019-02-19T08:00:00.509Z,64.43
2019-02-19T08:02:30.650Z,64.69
2019-02-19T08:05:00.985Z,64.54
2019-02-19T08:07:31.108Z,65.02
2019-02-19T08:10:01.274Z,64.40
2019-02-19T08:12:32.629Z,64.29
2019-02-19T08:15:02.781Z,64.89
2019-02-19T08:17:33.659Z,65.75
2019-02-19T08:20:03.993Z,65.53
2019-02-19T08:22:34.175Z,65.38
2019-02-19T08:25:04.267Z,65.21
2019-02-19T08:27:34.419Z,65.35
2019-02-19T08:30:05.081Z,65.20
2019-02-19T08:32:35.385Z,65.19
2019-02-19T08:35:05.632Z,65.66
2019-02-19T08:37:35.794Z,64.85
2019-02-19T08:40:06.185Z,65.21
2019-02-19T08:42:36.343Z,64.48
2019-02-19T08:45:06.607Z,64.06
2019-02-19T08:47:42.527Z,64.47
2019-02-19T08:50:10.807Z,64.33
2019-02-19T08:52:40.937Z,64.38
2019-02-19T08:55:11.142Z,63.77
2019-02-19T08:57:41.330Z,63.72
2019-02-19T09:00:11.675Z,62.99
2019-02-19T09:02:41.922Z,62.59
2019-02-19T09:05:12.079Z,62.65
2019-02-19T09:07:42.216Z,62.44
2019-02-19T09:10:12.472Z,62.39
2019-02-19T09:12:42.640Z,61.91
2019-02-19T09:15:12.800Z,61.28
2019-02-19T09:17:51.273Z,60.79
2019-02-19T09:20:14.814Z,60.44
2019-02-19T09:22:44.930Z,59.99
2019-02-19T09:25:15.148Z,59.99
2019-02-19T09:27:45.295Z,60.18
2019-02-19T09:30:15.410Z,60.02
2019-02-19T09:32:45.542Z,60.20
2019-02-19T09:35:15.781Z,59.91
2019-02-19T09:37:45.948Z,60.04
2019-02-19T09:40:16.129Z,60.40
2019-02-19T09:42:46.276Z,60.38
2019-02-19T09:45:16.559Z,60.23
2019-02-19T09:47:49.753Z,60.38
2019-02-19T09:50:19.901Z,60.30
2019-02-19T09:52:50.063Z,59.94
2019-02-19T09:55:20.280Z,59.71
2019-02-19T09:57:50.371Z,59.56
2019-02-19T10:00:20.509Z,59.82
2019-02-19T10:02:50.712Z,60.32
2019-02-19T10:05:20.863Z,60.21
2019-02-19T10:07:50.952Z,60.20
2019-02-19T10:10:21.211Z,60.39
2019-02-19T10:12:51.328Z,60.97
2019-02-19T10:15:21.509Z,61.34
2019-02-19T10:17:51.630Z,61.22
2019-02-19T10:20:21.789Z,60.86
2019-02-19T10:22:51.982Z,60.52
2019-02-19T10:25:22.118Z,60.71
2019-02-19T10:27:52.460Z,60.71
2019-02-19T10:30:23.120Z,60.24
2019-02-19T10:32:53.244Z,59.96
2019-02-19T10:35:23.409Z,60.15
2019-02-19T10:37:53.548Z,59.66
2019-02-19T10:40:23.715Z,58.72
2019-02-19T10:42:53.828Z,58.04
2019-02-19T10:45:24.096Z,57.85
2019-02-19T10:47:54.296Z,56.85
2019-02-19T10:50:24.443Z,56.96
2019-02-19T10:52:54.656Z,56.67
2019-02-19T10:55:24.830Z,55.99
2019-02-19T10:57:55.537Z,54.78
2019-02-19T11:00:25.648Z,54.00
2019-02-19T11:02:55.778Z,53.33
2019-02-19T11:05:26.000Z,53.40
2019-02-19T11:07:56.152Z,53.56
2019-02-19T11:10:26.260Z,53.27
2019-02-19T11:12:56.443Z,52.82
2019-02-19T11:15:26.536Z,52.93
2019-02-19T11:17:56.828Z,52.78
2019-02-19T11:20:28.902Z,52.26
2019-02-19T11:22:59.202Z,52.67
2019-02-19T11:25:29.334Z,52.78
2019-02-19T11:27:59.446Z,52.84
2019-02-19T11:30:29.550Z,52.76
2019-02-19T11:33:02.951Z,52.85
2019-02-19T11:35:33.080Z,53.43
2019-02-19T11:38:03.252Z,53.60
2019-02-19T11:40:33.393Z,53.33
2019-02-19T11:43:03.501Z,51.98
2019-02-19T11:45:33.704Z,52.59
2019-02-19T11:48:03.870Z,52.79
2019-02-19T11:50:34.247Z,52.76
2019-02-19T11:53:05.516Z,52.17
2019-02-19T11:55:35.664Z,52.26
2019-02-19T11:58:05.857Z,52.39
2019-02-19T12:00:38.441Z,52.28
2019-02-19T12:03:08.761Z,52.04
2019-02-19T12:05:39.031Z,52.41
2019-02-19T12:08:09.185Z,52.66
2019-02-19T12:10:39.387Z,52.44
2019-02-19T12:13:09.553Z,52.63
2019-02-19T12:15:39.775Z,51.71
2019-02-19T12:18:09.930Z,51.31
2019-02-19T12:20:40.254Z,51.59
2019-02-19T12:23:10.466Z,51.76
2019-02-19T12:25:40.609Z,51.61
2019-02-19T12:28:10.770Z,51.40
2019-02-19T12:30:41.009Z,51.10
2019-02-19T12:33:11.141Z,51.00
2019-02-19T12:35:42.946Z,50.96
2019-02-19T12:38:13.082Z,51.11
2019-02-19T12:40:43.259Z,51.36
2019-02-19T12:43:15.500Z,51.06
2019-02-19T12:45:45.665Z,51.13
2019-02-19T12:48:16.079Z,51.10
2019-02-19T12:50:46.261Z,50.91
2019-02-19T12:53:16.425Z,50.92
2019-02-19T12:55:46.583Z,51.06
2019-02-19T12:58:16.752Z,51.19
2019-02-19T13:00:46.970Z,51.68
2019-02-19T13:03:17.227Z,51.95
2019-02-19T13:05:47.409Z,51.81
2019-02-19T13:08:17.617Z,52.22
2019-02-19T13:10:47.776Z,51.64
2019-02-19T13:13:17.937Z,51.55
2019-02-19T13:15:48.148Z,50.95
2019-02-19T13:18:18.857Z,51.62
2019-02-19T13:20:49.215Z,51.59
2019-02-19T13:23:20.132Z,51.71
2019-02-19T13:25:50.964Z,51.68
2019-02-19T13:28:21.084Z,51.51
2019-02-19T13:30:51.244Z,51.29
2019-02-19T13:33:21.396Z,50.89
2019-02-19T13:35:51.557Z,50.74
2019-02-19T13:38:21.717Z,50.71
2019-02-19T13:40:51.844Z,50.48
2019-02-19T13:43:22.016Z,50.21
2019-02-19T13:45:52.259Z,50.02
2019-02-19T13:48:22.450Z,50.15
2019-02-19T13:50:52.577Z,50.38
2019-02-19T13:53:27.941Z,50.25
2019-02-19T13:55:59.098Z,50.53
2019-02-19T13:58:29.688Z,50.57
2019-02-19T14:01:00.145Z,50.42
2019-02-19T14:03:30.374Z,50.52
2019-02-19T14:06:00.499Z,50.37
2019-02-19T14:08:30.638Z,50.08
2019-02-19T14:11:01.752Z,50.72
2019-02-19T14:13:32.086Z,50.97
2019-02-19T14:16:15.695Z,51.37
2019-02-19T14:18:53.686Z,50.91
2019-02-19T14:21:42.828Z,50.89
2019-02-19T14:24:34.733Z,51.29
2019-02-19T14:27:42.335Z,50.70
2019-02-19T14:30:34.512Z,50.59
2019-02-19T14:33:27.316Z,50.61
2019-02-19T14:36:14.992Z,50.82
2019-02-19T14:39:19.610Z,50.45
2019-02-19T14:42:23.849Z,50.57
2019-02-19T14:45:09.486Z,51.15
2019-02-19T14:47:57.499Z,50.48
2019-02-19T14:50:46.654Z,50.39
2019-02-19T14:53:45.248Z,50.32
2019-02-19T14:56:35.118Z,50.39
2019-02-19T14:59:42.514Z,50.18
2019-02-19T15:02:30.341Z,50.33
2019-02-19T15:05:12.621Z,50.36
2019-02-19T15:08:00.359Z,50.82
2019-02-19T15:10:52.266Z,50.65
2019-02-19T15:13:41.309Z,51.24
2019-02-19T15:16:25.239Z,51.63
2019-02-19T15:19:07.072Z,51.27
2019-02-19T15:22:11.881Z,51.44
2019-02-19T15:24:59.891Z,51.17
2019-02-19T15:27:42.514Z,51.53
2019-02-19T15:30:34.415Z,52.74
2019-02-19T15:33:22.629Z,52.92
2019-02-19T15:36:06.273Z,52.90
2019-02-19T15:39:01.467Z,53.05
2019-02-19T15:41:53.457Z,53.56
2019-02-19T15:44:31.810Z,53.72
2019-02-19T15:47:23.803Z,53.16
2019-02-19T15:50:10.249Z,53.11
2019-02-19T15:53:02.445Z,52.66
2019-02-19T15:55:53.455Z,52.86
2019-02-19T15:58:37.082Z,53.38
2019-02-19T16:01:41.464Z,53.35
2019-02-19T16:04:30.628Z,53.54
2019-02-19T16:07:37.945Z,53.82
2019-02-19T16:10:19.331Z,53.40
2019-02-19T16:13:17.483Z,53.54
2019-02-19T16:16:05.614Z,53.48
2019-02-19T16:18:52.383Z,53.49
2019-02-19T16:21:44.517Z,53.66
2019-02-19T16:24:29.135Z,53.63
2019-02-19T16:27:15.191Z,53.53
2019-02-19T16:30:17.878Z,53.64
2019-02-19T16:33:16.175Z,53.68
2019-02-19T16:35:54.980Z,53.98
2019-02-19T16:38:53.057Z,54.13
2019-02-19T16:41:37.084Z,55.71
2019-02-19T16:44:32.156Z,60.17
2019-02-19T16:47:30.850Z,67.10
2019-02-19T16:50:08.806Z,70.91
2019-02-19T16:52:48.175Z,72.03
2019-02-19T16:55:36.501Z,73.09
2019-02-19T16:58:31.425Z,74.37
2019-02-19T17:01:38.764Z,74.48
2019-02-19T17:04:22.063Z,73.98
2019-02-19T17:07:02.755Z,73.74
2019-02-19T17:09:43.132Z,73.07
2019-02-19T17:12:44.441Z,73.00
2019-02-19T17:15:36.687Z,72.69
2019-02-19T17:18:27.575Z,72.24
2019-02-19T17:21:23.418Z,72.04
2019-02-19T17:24:12.346Z,73.02
2019-02-19T17:27:09.038Z,73.82
2019-02-19T17:29:57.640Z,74.42
2019-02-19T17:32:50.525Z,73.18
2019-02-19T17:35:37.708Z,72.87
2019-02-19T17:38:33.112Z,73.96
2019-02-19T17:41:09.417Z,77.16
2019-02-19T17:43:59.886Z,75.82
2019-02-19T17:46:43.816Z,74.88
2019-02-19T17:49:39.218Z,75.06
2019-02-19T17:52:34.650Z,75.74
2019-02-19T17:55:27.232Z,76.21
2019-02-19T17:58:19.536Z,75.33
2019-02-19T18:00:59.876Z,75.67
2019-02-19T18:03:55.049Z,74.98
2019-02-19T18:06:43.475Z,74.20
2019-02-19T18:09:29.945Z,74.53
2019-02-19T18:12:05.508Z,73.87
2019-02-19T18:15:06.509Z,74.20
2019-02-19T18:17:55.238Z,73.34
2019-02-19T18:20:25.796Z,72.95
2019-02-19T18:22:55.988Z,73.05
2019-02-19T18:25:31.406Z,73.54
2019-02-19T18:28:01.552Z,73.35
2019-02-19T18:30:32.367Z,73.25
2019-02-19T18:33:02.964Z,72.96
2019-02-19T18:35:35.967Z,72.56
2019-02-19T18:38:06.559Z,72.07
2019-02-19T18:40:36.670Z,72.84
2019-02-19T18:43:06.839Z,73.29
2019-02-19T18:45:38.132Z,72.52
2019-02-19T18:48:10.768Z,72.53
2019-02-19T18:50:40.966Z,72.16
2019-02-19T18:53:11.168Z,71.97
2019-02-19T18:55:41.319Z,71.84
2019-02-19T18:58:11.935Z,72.29
2019-02-19T19:00:42.495Z,72.43
2019-02-19T19:03:13.869Z,72.05
2019-02-19T19:05:46.850Z,71.43
2019-02-19T19:08:18.920Z,72.10
2019-02-19T19:10:49.987Z,72.46
2019-02-19T19:13:20.163Z,71.49
2019-02-19T19:15:50.503Z,70.78
2019-02-19T19:18:23.707Z,71.17
2019-02-19T19:20:57.445Z,71.33
2019-02-19T19:23:28.207Z,71.18
2019-02-19T19:25:58.755Z,71.18
2019-02-19T19:28:28.943Z,71.32
2019-02-19T19:31:01.057Z,70.68
2019-02-19T19:33:31.213Z,71.22
2019-02-19T19:36:03.230Z,70.75
2019-02-19T19:38:34.015Z,71.04
2019-02-19T19:41:04.428Z,69.97
2019-02-19T19:43:34.740Z,70.28
2019-02-19T19:46:06.769Z,68.93
2019-02-19T19:48:43.305Z,69.20
2019-02-19T19:51:24.279Z,69.52
2019-02-19T19:53:54.093Z,68.99
2019-02-19T19:56:24.321Z,69.23
2019-02-19T19:58:54.540Z,69.61
2019-02-19T20:01:24.990Z,71.81
2019-02-19T20:03:55.165Z,70.10
2019-02-19T20:06:27.933Z,71.37
2019-02-19T20:08:58.388Z,70.93
2019-02-19T20:11:28.627Z,70.85
2019-02-19T20:14:04.437Z,71.14
2019-02-19T20:16:37.493Z,70.82
2019-02-19T20:19:09.607Z,71.22
2019-02-19T20:21:42.108Z,70.65
2019-02-19T20:24:12.388Z,70.84
2019-02-19T20:26:42.815Z,70.95
2019-02-19T20:29:13.642Z,70.74
2019-02-19T20:31:43.948Z,71.06
2019-02-19T20:34:14.241Z,70.87
2019-02-19T20:36:44.618Z,70.66
2019-02-19T20:39:14.997Z,70.16
2019-02-19T20:41:45.299Z,70.02
2019-02-19T20:44:16.608Z,70.17
2019-02-19T20:46:46.903Z,69.77
2019-02-19T20:49:17.200Z,69.91
2019-02-19T20:51:47.374Z,69.58
2019-02-19T20:54:17.648Z,69.89
2019-02-19T20:56:47.812Z,69.92
2019-02-19T20:59:18.109Z,69.80
2019-02-19T21:01:48.284Z,69.78
2019-02-19T21:04:21.586Z,69.96
2019-02-19T21:06:51.780Z,70.09
2019-02-19T21:09:22.080Z,70.43
2019-02-19T21:11:52.449Z,69.91
2019-02-19T21:14:22.909Z,70.08
2019-02-19T21:16:53.239Z,69.91
2019-02-19T21:19:23.448Z,70.06
2019-02-19T21:21:56.026Z,70.04
2019-02-19T21:24:26.282Z,69.79
2019-02-19T21:26:59.631Z,70.06
2019-02-19T21:29:29.919Z,69.94
2019-02-19T21:32:00.225Z,69.53
2019-02-19T21:34:30.427Z,69.79
2019-02-19T21:37:00.696Z,69.75
2019-02-19T21:39:31.014Z,69.99
2019-02-19T21:42:01.257Z,70.24
2019-02-19T21:44:31.535Z,69.94
2019-02-19T21:47:01.776Z,69.58
2019-02-19T21:49:32.311Z,69.62
2019-02-19T21:52:02.612Z,69.63
2019-02-19T21:54:32.864Z,69.40
2019-02-19T21:57:03.104Z,69.61
2019-02-19T21:59:34.352Z,69.62
2019-02-19T22:02:04.574Z,69.51
2019-02-19T22:04:34.901Z,69.29
2019-02-19T22:07:07.866Z,69.19
2019-02-19T22:09:38.083Z,68.63
2019-02-19T22:12:08.240Z,68.46
2019-02-19T22:14:38.380Z,68.84
2019-02-19T22:17:08.546Z,68.57
2019-02-19T22:19:38.706Z,68.42
2019-02-19T22:22:12.986Z,68.45
2019-02-19T22:24:43.142Z,68.16
2019-02-19T22:27:13.334Z,68.84
2019-02-19T22:29:43.456Z,68.96
2019-02-19T22:32:14.904Z,68.49
2019-02-19T22:34:45.331Z,68.84
2019-02-19T22:37:15.421Z,68.55
2019-02-19T22:39:47.358Z,68.82
2019-02-19T22:42:18.666Z,68.44
2019-02-19T22:44:48.860Z,68.75
2019-02-19T22:47:19.003Z,68.38
2019-02-19T22:49:49.150Z,68.19
2019-02-19T22:52:20.418Z,67.46
2019-02-19T22:55:12.315Z,67.86
2019-02-19T22:57:42.433Z,67.46
2019-02-19T23:00:33.366Z,67.49
2019-02-19T23:03:05.631Z,67.12
2019-02-19T23:05:36.025Z,67.25
2019-02-19T23:08:06.209Z,66.97
2019-02-19T23:10:36.463Z,66.73
2019-02-19T23:13:06.685Z,66.58
2019-02-19T23:15:36.910Z,66.19
2019-02-19T23:18:07.099Z,65.65
2019-02-19T23:20:37.248Z,65.19
2019-02-19T23:23:07.492Z,65.21
2019-02-19T23:25:37.671Z,64.87
2019-02-19T23:28:07.921Z,64.49
2019-02-19T23:30:39.298Z,64.75
2019-02-19T23:33:09.514Z,64.59
2019-02-19T23:35:44.143Z,64.47
2019-02-19T23:38:15.673Z,64.52
2019-02-19T23:40:45.753Z,64.74
2019-02-19T23:43:15.913Z,64.90
2019-02-19T23:45:46.099Z,64.93
2019-02-19T23:48:16.237Z,65.09
2019-02-19T23:50:46.435Z,64.59
2019-02-19T23:53:16.700Z,64.73
2019-02-19T23:55:46.879Z,64.58
2019-02-19T23:58:17.918Z,64.71
